createdAt,value
2023-02-26T00:04:33.750Z,22.4
2023-02-26T00:10:28.755Z,22.4
2023-02-26T00:16:07.219Z,22.4
2023-02-26T00:22:00.783Z,22.4
2023-02-26T00:27:53.871Z,22.4
2023-02-26T00:33:47.590Z,22.4
2023-02-26T00:39:40.711Z,22.3
2023-02-26T00:45:33.666Z,22.3
2023-02-26T00:51:26.905Z,22.3
2023-02-26T00:57:18.801Z,22.3
2023-02-26T01:03:11.760Z,22.3
2023-02-26T01:09:04.176Z,22.3
2023-02-26T01:14:56.435Z,22.3
2023-02-26T01:20:51.100Z,22.3
2023-02-26T01:26:44.159Z,22.2
2023-02-26T01:32:37.906Z,22.2
2023-02-26T01:38:31.182Z,22.2
2023-02-26T01:44:24.210Z,22.2
2023-02-26T01:50:17.566Z,22.2
2023-02-26T01:56:11.485Z,22.1
2023-02-26T02:02:04.067Z,22.1
2023-02-26T02:07:56.823Z,22.2
2023-02-26T02:13:49.860Z,23.2
2023-02-26T02:19:27.357Z,24.7
2023-02-26T02:25:04.246Z,26.3
2023-02-26T02:30:58.574Z,27.6
2023-02-26T02:36:52.604Z,28.8
2023-02-26T02:42:46.151Z,29.5
2023-02-26T02:48:41.288Z,30.1
2023-02-26T02:54:33.912Z,30.6
2023-02-26T03:00:26.395Z,31.1
2023-02-26T03:06:20.944Z,31.6
2023-02-26T03:12:14.124Z,32.1
2023-02-26T03:18:07.699Z,32.6
2023-02-26T03:24:01.362Z,33.2
2023-02-26T03:29:53.970Z,33.8
2023-02-26T03:35:47.359Z,34.3
2023-02-26T03:41:39.852Z,34.5
2023-02-26T03:47:16.786Z,34.8
2023-02-26T03:53:10.468Z,34.9
2023-02-26T03:58:47.853Z,35.1
2023-02-26T04:04:25.867Z,35.2
2023-02-26T04:10:05.642Z,35.3
2023-02-26T04:15:59.080Z,35.3
2023-02-26T04:21:36.437Z,35.3
2023-02-26T04:27:29.697Z,35.3
2023-02-26T04:33:22.924Z,35.4
2023-02-26T04:39:15.391Z,35.4
2023-02-26T04:44:52.515Z,35.4
2023-02-26T04:50:47.027Z,35.5
2023-02-26T04:56:25.641Z,35.6
2023-02-26T05:02:02.059Z,35.6
2023-02-26T05:07:24.455Z,35.6
2023-02-26T05:13:17.675Z,35.6
2023-02-26T05:19:11.170Z,35.6
2023-02-26T05:25:06.594Z,35.6
2023-02-26T05:30:59.653Z,35.5
2023-02-26T05:36:53.031Z,35.4
2023-02-26T05:42:46.266Z,35.4
2023-02-26T05:48:39.555Z,35.3
2023-02-26T05:54:17.060Z,35.2
2023-02-26T06:00:09.502Z,35.1
2023-02-26T06:06:02.261Z,34.9
2023-02-26T06:11:54.147Z,34.8
2023-02-26T06:17:47.129Z,34.7
2023-02-26T06:23:39.731Z,34.6
2023-02-26T06:29:32.489Z,34.4
2023-02-26T06:35:11.082Z,34.3
2023-02-26T06:40:49.541Z,34.3
2023-02-26T06:46:42.106Z,34.3
2023-02-26T06:52:34.671Z,34.1
2023-02-26T06:58:26.886Z,33.9
2023-02-26T07:04:20.774Z,33.8
2023-02-26T07:10:35.096Z,33.7
2023-02-26T07:16:27.870Z,33.6
2023-02-26T07:22:21.992Z,33.5
2023-02-26T07:28:16.851Z,33.4
2023-02-26T07:34:10.972Z,33.3
2023-02-26T07:40:02.934Z,33
2023-02-26T07:45:55.407Z,32.9
2023-02-26T07:51:32.976Z,32.7
2023-02-26T07:57:25.337Z,32.5
2023-02-26T08:03:18.249Z,32.4
2023-02-26T08:09:10.992Z,32.3
2023-02-26T08:15:03.806Z,32.1
2023-02-26T08:20:57.190Z,32
2023-02-26T08:26:20.160Z,31.8
2023-02-26T08:32:13.618Z,31.5
2023-02-26T08:38:07.281Z,31.4
2023-02-26T08:43:31.224Z,31.1
2023-02-26T08:49:35.442Z,46.4
2023-02-26T08:55:27.948Z,44
2023-02-26T09:01:19.993Z,41.4
2023-02-26T09:07:16.631Z,39.5
2023-02-26T09:13:10.040Z,38.1
2023-02-26T09:18:47.281Z,46.9
2023-02-26T09:24:40.886Z,44.9
2023-02-26T09:30:33.750Z,47.3
2023-02-26T09:36:11.544Z,50.4
2023-02-26T09:42:06.475Z,52
2023-02-26T09:47:58.930Z,53.1
2023-02-26T09:53:35.559Z,53.8
2023-02-26T09:59:27.528Z,54.3
2023-02-26T10:05:20.827Z,54.8
2023-02-26T10:11:13.500Z,55.5
2023-02-26T10:16:49.121Z,56.1
2023-02-26T10:22:27.761Z,56.5
2023-02-26T10:28:20.382Z,56.9
2023-02-26T10:33:59.896Z,57.2
2023-02-26T10:39:39.376Z,57.5
2023-02-26T10:50:38.268Z,58.1
2023-02-26T11:01:53.857Z,57.3
2023-02-26T11:07:36.654Z,56.5
2023-02-26T11:13:29.957Z,55.9
2023-02-26T11:19:24.151Z,55.3
2023-02-26T11:25:16.231Z,54.7
2023-02-26T11:31:13.007Z,54
2023-02-26T11:37:08.457Z,53.4
2023-02-26T11:42:48.937Z,50.8
2023-02-26T11:48:26.388Z,47.8
2023-02-26T11:53:47.974Z,45.2
2023-02-26T11:59:27.212Z,43.4
2023-02-26T12:05:20.577Z,41.9
2023-02-26T12:11:13.581Z,40.9
2023-02-26T12:17:06.604Z,39.8
2023-02-26T12:22:47.063Z,39.1
2023-02-26T12:28:24.551Z,38.4
2023-02-26T12:34:17.615Z,37.8
2023-02-26T12:40:28.036Z,37.3
2023-02-26T12:46:05.095Z,36.8
2023-02-26T12:51:58.838Z,36.4
2023-02-26T12:57:51.891Z,36
2023-02-26T13:03:55.731Z,35.6
2023-02-26T13:09:47.393Z,35.3
2023-02-26T13:15:41.056Z,35
2023-02-26T13:21:33.481Z,34.6
2023-02-26T13:27:25.212Z,34.3
2023-02-26T13:33:23.239Z,33.9
2023-02-26T13:39:16.131Z,33.6
2023-02-26T13:45:09.314Z,33.3
2023-02-26T13:50:15.519Z,33
2023-02-26T13:55:37.114Z,32.7
2023-02-26T14:01:15.931Z,32.4
2023-02-26T14:06:53.225Z,32.3
2023-02-26T14:12:32.475Z,32.1
2023-02-26T14:18:09.450Z,31.9
2023-02-26T14:24:02.372Z,44.6
2023-02-26T14:29:55.112Z,43.1
2023-02-26T14:35:49.298Z,40.8
2023-02-26T14:41:46.009Z,38.9
2023-02-26T14:47:38.644Z,37.4
2023-02-26T14:53:31.248Z,36.3
2023-02-26T14:59:09.347Z,35.4
2023-02-26T15:05:17.338Z,34.6
2023-02-26T15:11:09.489Z,33.9
2023-02-26T15:17:05.009Z,33.4
2023-02-26T15:22:58.307Z,32.8
2023-02-26T15:28:51.939Z,32.3
2023-02-26T15:34:46.365Z,31.8
2023-02-26T15:40:40.015Z,31.3
2023-02-26T15:46:41.252Z,30.9
2023-02-26T15:52:34.386Z,30.5
2023-02-26T15:58:27.431Z,30.2
2023-02-26T16:04:05.232Z,29.9
2023-02-26T16:09:57.998Z,29.7
2023-02-26T16:15:50.524Z,29.4
2023-02-26T16:21:44.202Z,29.2
2023-02-26T16:27:38.104Z,29
2023-02-26T16:33:31.955Z,28.9
2023-02-26T16:39:10.342Z,28.7
2023-02-26T16:44:48.345Z,28.5
2023-02-26T16:50:27.292Z,28.4
2023-02-26T16:55:50.168Z,28.3
2023-02-26T17:01:15.166Z,28.2
2023-02-26T17:06:53.218Z,28.1
2023-02-26T17:12:50.128Z,27.9
2023-02-26T17:18:44.984Z,27.7
2023-02-26T17:24:38.161Z,27.6
2023-02-26T17:30:31.537Z,27.5
2023-02-26T17:36:25.897Z,27.4
2023-02-26T17:42:18.892Z,27.3
2023-02-26T17:48:12.078Z,27.2
2023-02-26T17:54:05.828Z,27.1
2023-02-26T17:59:59.553Z,26.9
2023-02-26T18:05:54.155Z,26.9
2023-02-26T18:11:47.887Z,26.6
2023-02-26T18:17:41.130Z,26
2023-02-26T18:23:34.246Z,25.6
2023-02-26T18:29:27.697Z,25.2
2023-02-26T18:35:21.913Z,24.9
2023-02-26T18:41:14.635Z,24.6
2023-02-26T18:47:08.285Z,24.4
2023-02-26T18:53:01.135Z,24.2
2023-02-26T18:58:56.856Z,24.1
2023-02-26T19:04:51.701Z,24
2023-02-26T19:10:44.874Z,23.9
2023-02-26T19:16:38.349Z,23.8
2023-02-26T19:22:32.142Z,23.7
2023-02-26T19:28:28.684Z,23.6
2023-02-26T19:34:26.366Z,23.6
2023-02-26T19:40:20.881Z,23.6
2023-02-26T19:46:13.996Z,23.6
2023-02-26T19:52:07.143Z,23.5
2023-02-26T19:57:59.698Z,23.5
2023-02-26T20:03:53.806Z,23.5
2023-02-26T20:09:48.766Z,23.4
2023-02-26T20:15:42.374Z,23.4
2023-02-26T20:21:36.407Z,24.3
2023-02-26T20:27:13.559Z,25.9
2023-02-26T20:33:10.736Z,27.8
2023-02-26T20:39:05.908Z,29.6
2023-02-26T20:44:59.390Z,30.9
2023-02-26T20:50:53.091Z,31.9
2023-02-26T20:56:46.773Z,32.6
2023-02-26T21:02:25.128Z,33.2
2023-02-26T21:08:03.155Z,33.7
2023-02-26T21:13:55.613Z,34.3
2023-02-26T21:19:49.154Z,34.6
2023-02-26T21:25:42.530Z,34.9
2023-02-26T21:31:37.036Z,34.9
2023-02-26T21:37:56.358Z,35.1
2023-02-26T21:43:50.241Z,35.3
2023-02-26T21:49:43.932Z,35.3
2023-02-26T21:55:37.610Z,35.4
2023-02-26T22:01:30.821Z,35.4
2023-02-26T22:07:23.294Z,35.4
2023-02-26T22:13:16.364Z,35.4
2023-02-26T22:19:08.847Z,35.4
2023-02-26T22:25:00.967Z,35.3
2023-02-26T22:30:52.748Z,35.3
2023-02-26T22:36:46.604Z,35.3
2023-02-26T22:42:39.363Z,35.3
2023-02-26T22:48:32.221Z,35.2
2023-02-26T22:54:24.646Z,35.1
2023-02-26T23:00:16.774Z,35.1
2023-02-26T23:06:10.531Z,35
2023-02-26T23:12:03.268Z,34.9
2023-02-26T23:17:56.207Z,34.9
2023-02-26T23:23:47.961Z,34.8
2023-02-26T23:29:40.642Z,34.8
2023-02-26T23:35:33.522Z,34.7
2023-02-26T23:41:25.951Z,34.6
2023-02-26T23:47:18.721Z,34.6
2023-02-26T23:53:10.445Z,34.5
2023-02-26T23:59:02.723Z,34.4
